Time,TemperatureF,DewpointF,PressureIn,WindDirection,WindDirectionDegrees,WindSpeedMPH,WindSpeedGustMPH,Humidity,HourlyPrecipIn,Conditions,Clouds,dailyrainin,SoftwareType,DateUTC
2013-05-14 00:00:00,40.0,33.0,-100.00,NW,318,0.0,3.0,74,-99.99,,,-99.99,,2013-05-14 04:00:00,
2013-05-14 00:32:00,40.0,33.0,-100.00,NW,318,0.0,3.0,74,-99.99,,,-99.99,,2013-05-14 04:32:00,
2013-05-14 00:43:00,40.0,33.0,-100.00,NW,318,0.0,3.0,74,-99.99,,,-99.99,,2013-05-14 04:43:00,
2013-05-14 00:53:00,40.0,33.0,-100.00,NW,318,0.0,3.0,74,-99.99,,,-99.99,,2013-05-14 04:53:00,
2013-05-14 01:00:00,40.0,30.0,-100.00,WSW,257,0.0,4.0,67,-99.99,,,-99.99,,2013-05-14 05:00:00,
2013-05-14 01:22:00,40.0,30.0,-100.00,WSW,257,0.0,4.0,67,-99.99,,,-99.99,,2013-05-14 05:22:00,
2013-05-14 01:32:00,40.0,30.0,-100.00,WSW,257,0.0,4.0,67,-99.99,,,-99.99,,2013-05-14 05:32:00,
2013-05-14 01:42:00,40.0,30.0,-100.00,WSW,257,0.0,4.0,67,-99.99,,,-99.99,,2013-05-14 05:42:00,
2013-05-14 01:52:00,40.0,30.0,-100.00,WSW,257,0.0,4.0,67,-99.99,,,-99.99,,2013-05-14 05:52:00,
2013-05-14 03:00:00,38.0,32.0,-100.00,WNW,300,0.0,3.0,79,-99.99,,,-99.99,,2013-05-14 07:00:00,
2013-05-14 03:22:00,38.0,32.0,-100.00,WNW,300,0.0,3.0,79,-99.99,,,-99.99,,2013-05-14 07:22:00,
2013-05-14 03:32:00,38.0,32.0,-100.00,WNW,300,0.0,3.0,79,-99.99,,,-99.99,,2013-05-14 07:32:00,
2013-05-14 03:42:00,38.0,32.0,-100.00,WNW,300,0.0,3.0,79,-99.99,,,-99.99,,2013-05-14 07:42:00,
2013-05-14 03:52:00,38.0,32.0,-100.00,WNW,300,0.0,3.0,79,-99.99,,,-99.99,,2013-05-14 07:52:00,
2013-05-14 04:00:00,38.0,32.0,-100.00,NW,319,0.0,4.0,80,-99.99,,,-99.99,,2013-05-14 08:00:00,
2013-05-14 04:32:00,38.0,32.0,-100.00,NW,319,0.0,4.0,80,-99.99,,,-99.99,,2013-05-14 08:32:00,
2013-05-14 04:42:00,38.0,32.0,-100.00,NW,319,0.0,4.0,80,-99.99,,,-99.99,,2013-05-14 08:42:00,
2013-05-14 04:52:00,38.0,32.0,-100.00,NW,319,0.0,4.0,80,-99.99,,,-99.99,,2013-05-14 08:52:00,
2013-05-14 05:00:00,38.0,33.0,-100.00,WNW,283,1.0,4.0,81,-99.99,,,-99.99,,2013-05-14 09:00:00,
2013-05-14 05:22:00,38.0,33.0,-100.00,WNW,283,1.0,4.0,81,-99.99,,,-99.99,,2013-05-14 09:22:00,
2013-05-14 05:33:00,38.0,33.0,-100.00,WNW,283,1.0,4.0,81,-99.99,,,-99.99,,2013-05-14 09:33:00,
2013-05-14 05:44:00,38.0,33.0,-100.00,WNW,283,1.0,4.0,81,-99.99,,,-99.99,,2013-05-14 09:44:00,
2013-05-14 05:54:00,38.0,33.0,-100.00,WNW,283,1.0,4.0,81,-99.99,,,-99.99,,2013-05-14 09:54:00,
2013-05-14 06:00:00,38.0,33.0,-100.00,WSW,246,2.0,5.0,84,-99.99,,,-99.99,,2013-05-14 10:00:00,
2013-05-14 06:25:00,38.0,33.0,-100.00,WSW,246,2.0,5.0,84,-99.99,,,-99.99,,2013-05-14 10:25:00,
2013-05-14 06:33:00,38.0,33.0,-100.00,WSW,246,2.0,5.0,84,-99.99,,,-99.99,,2013-05-14 10:33:00,
2013-05-14 06:42:00,38.0,33.0,-100.00,WSW,246,2.0,5.0,84,-99.99,,,-99.99,,2013-05-14 10:42:00,
2013-05-14 06:53:00,38.0,33.0,-100.00,WSW,246,2.0,5.0,84,-99.99,,,-99.99,,2013-05-14 10:53:00,
2013-05-14 07:00:00,43.0,34.0,-100.00,SSW,213,1.0,-999.0,73,-99.99,,,-99.99,,2013-05-14 11:00:00,
2013-05-14 07:22:00,43.0,34.0,-100.00,SSW,213,1.0,-999.0,73,-99.99,,,-99.99,,2013-05-14 11:22:00,
2013-05-14 07:32:00,43.0,34.0,-100.00,SSW,213,1.0,-999.0,73,-99.99,,,-99.99,,2013-05-14 11:32:00,
2013-05-14 07:43:00,43.0,34.0,-100.00,SSW,213,1.0,-999.0,73,-99.99,,,-99.99,,2013-05-14 11:43:00,
2013-05-14 07:53:00,43.0,34.0,-100.00,SSW,213,1.0,-999.0,73,-99.99,,,-99.99,,2013-05-14 11:53:00,
2013-05-14 08:00:00,47.0,32.0,-100.00,NNW,329,2.0,8.0,56,-99.99,,,-99.99,,2013-05-14 12:00:00,
2013-05-14 08:32:00,47.0,32.0,-100.00,NNW,329,2.0,8.0,56,-99.99,,,-99.99,,2013-05-14 12:32:00,
2013-05-14 08:42:00,47.0,32.0,-100.00,NNW,329,2.0,8.0,56,-99.99,,,-99.99,,2013-05-14 12:42:00,
2013-05-14 08:52:00,47.0,32.0,-100.00,NNW,329,2.0,8.0,56,-99.99,,,-99.99,,2013-05-14 12:52:00,
2013-05-14 09:00:00,51.0,30.0,-100.00,West,259,4.0,7.0,45,-99.99,,,-99.99,,2013-05-14 13:00:00,
2013-05-14 09:32:00,51.0,30.0,-100.00,West,259,4.0,7.0,45,-99.99,,,-99.99,,2013-05-14 13:32:00,
2013-05-14 09:42:00,51.0,30.0,-100.00,West,259,4.0,7.0,45,-99.99,,,-99.99,,2013-05-14 13:42:00,
2013-05-14 09:52:00,51.0,30.0,-100.00,West,259,4.0,7.0,45,-99.99,,,-99.99,,2013-05-14 13:52:00,
2013-05-14 10:00:00,52.0,28.0,-100.00,West,260,4.0,11.0,38,-99.99,,,-99.99,,2013-05-14 14:00:00,
2013-05-14 10:32:00,52.0,28.0,-100.00,West,260,4.0,11.0,38,-99.99,,,-99.99,,2013-05-14 14:32:00,
2013-05-14 10:42:00,52.0,28.0,-100.00,West,260,4.0,11.0,38,-99.99,,,-99.99,,2013-05-14 14:42:00,
2013-05-14 10:53:00,52.0,28.0,-100.00,West,260,4.0,11.0,38,-99.99,,,-99.99,,2013-05-14 14:53:00,
2013-05-14 11:00:00,54.0,31.0,-100.00,SW,232,6.0,12.0,41,-99.99,,,-99.99,,2013-05-14 15:00:00,
2013-05-14 11:22:00,54.0,31.0,-100.00,SW,232,6.0,12.0,41,-99.99,,,-99.99,,2013-05-14 15:22:00,
2013-05-14 11:33:00,54.0,31.0,-100.00,SW,232,6.0,12.0,41,-99.99,,,-99.99,,2013-05-14 15:33:00,
2013-05-14 11:43:00,54.0,31.0,-100.00,SW,232,6.0,12.0,41,-99.99,,,-99.99,,2013-05-14 15:43:00,
2013-05-14 11:53:00,54.0,31.0,-100.00,SW,232,6.0,12.0,41,-99.99,,,-99.99,,2013-05-14 15:53:00,
2013-05-14 12:00:00,54.0,32.0,-100.00,SW,229,5.0,17.0,42,-99.99,,,-99.99,,2013-05-14 16:00:00,
2013-05-14 12:23:00,54.0,32.0,-100.00,SW,229,5.0,17.0,42,-99.99,,,-99.99,,2013-05-14 16:23:00,
2013-05-14 12:33:00,54.0,32.0,-100.00,SW,229,5.0,17.0,42,-99.99,,,-99.99,,2013-05-14 16:33:00,
2013-05-14 12:44:00,54.0,32.0,-100.00,SW,229,5.0,17.0,42,-99.99,,,-99.99,,2013-05-14 16:44:00,
2013-05-14 12:54:00,54.0,32.0,-100.00,SW,229,5.0,17.0,42,-99.99,,,-99.99,,2013-05-14 16:54:00,
2013-05-14 13:00:00,55.0,31.0,-100.00,WSW,244,8.0,17.0,40,-99.99,,,-99.99,,2013-05-14 17:00:00,
2013-05-14 13:24:00,55.0,31.0,-100.00,WSW,244,8.0,17.0,40,-99.99,,,-99.99,,2013-05-14 17:24:00,
2013-05-14 13:33:00,55.0,31.0,-100.00,WSW,244,8.0,17.0,40,-99.99,,,-99.99,,2013-05-14 17:33:00,
2013-05-14 13:43:00,55.0,31.0,-100.00,WSW,244,8.0,17.0,40,-99.99,,,-99.99,,2013-05-14 17:43:00,
2013-05-14 13:52:00,55.0,31.0,-100.00,WSW,244,8.0,17.0,40,-99.99,,,-99.99,,2013-05-14 17:52:00,
2013-05-14 14:00:00,57.0,32.0,-100.00,WSW,256,5.0,18.0,39,-99.99,,,-99.99,,2013-05-14 18:00:00,
2013-05-14 14:22:00,57.0,32.0,-100.00,WSW,256,5.0,18.0,39,-99.99,,,-99.99,,2013-05-14 18:22:00,
2013-05-14 14:32:00,57.0,32.0,-100.00,WSW,256,5.0,18.0,39,-99.99,,,-99.99,,2013-05-14 18:32:00,
2013-05-14 14:42:00,57.0,32.0,-100.00,WSW,256,5.0,18.0,39,-99.99,,,-99.99,,2013-05-14 18:42:00,
2013-05-14 14:52:00,57.0,32.0,-100.00,WSW,256,5.0,18.0,39,-99.99,,,-99.99,,2013-05-14 18:52:00,
2013-05-14 15:00:00,57.0,27.0,-100.00,WSW,240,7.0,19.0,31,-99.99,,,-99.99,,2013-05-14 19:00:00,
2013-05-14 15:22:00,57.0,27.0,-100.00,WSW,240,7.0,19.0,31,-99.99,,,-99.99,,2013-05-14 19:22:00,
2013-05-14 15:32:00,57.0,27.0,-100.00,WSW,240,7.0,19.0,31,-99.99,,,-99.99,,2013-05-14 19:32:00,
2013-05-14 15:42:00,57.0,27.0,-100.00,WSW,240,7.0,19.0,31,-99.99,,,-99.99,,2013-05-14 19:42:00,
2013-05-14 15:53:00,57.0,27.0,-100.00,WSW,240,7.0,19.0,31,-99.99,,,-99.99,,2013-05-14 19:53:00,
2013-05-14 16:00:00,58.0,31.0,-100.00,SW,236,8.0,17.0,34,-99.99,,,-99.99,,2013-05-14 20:00:00,
2013-05-14 16:23:00,58.0,31.0,-100.00,SW,236,8.0,17.0,34,-99.99,,,-99.99,,2013-05-14 20:23:00,
2013-05-14 16:33:00,58.0,31.0,-100.00,SW,236,8.0,17.0,34,-99.99,,,-99.99,,2013-05-14 20:33:00,
2013-05-14 16:44:00,58.0,31.0,-100.00,SW,236,8.0,17.0,34,-99.99,,,-99.99,,2013-05-14 20:44:00,
2013-05-14 16:52:00,58.0,31.0,-100.00,SW,236,8.0,17.0,34,-99.99,,,-99.99,,2013-05-14 20:52:00,
2013-05-14 17:00:00,58.0,30.0,-100.00,West,259,6.0,18.0,34,-99.99,,,-99.99,,2013-05-14 21:00:00,
2013-05-14 17:23:00,58.0,30.0,-100.00,West,259,6.0,18.0,34,-99.99,,,-99.99,,2013-05-14 21:23:00,
2013-05-14 17:34:00,58.0,30.0,-100.00,West,259,6.0,18.0,34,-99.99,,,-99.99,,2013-05-14 21:34:00,
2013-05-14 17:43:00,58.0,30.0,-100.00,West,259,6.0,18.0,34,-99.99,,,-99.99,,2013-05-14 21:43:00,
2013-05-14 17:53:00,58.0,30.0,-100.00,West,259,6.0,18.0,34,-99.99,,,-99.99,,2013-05-14 21:53:00,
2013-05-14 18:00:00,59.0,30.0,-100.00,WNW,286,5.0,11.0,32,-99.99,,,-99.99,,2013-05-14 22:00:00,
2013-05-14 18:24:00,59.0,30.0,-100.00,WNW,286,5.0,11.0,32,-99.99,,,-99.99,,2013-05-14 22:24:00,
2013-05-14 18:35:00,59.0,30.0,-100.00,WNW,286,5.0,11.0,32,-99.99,,,-99.99,,2013-05-14 22:35:00,
2013-05-14 18:45:00,59.0,30.0,-100.00,WNW,286,5.0,11.0,32,-99.99,,,-99.99,,2013-05-14 22:45:00,
2013-05-14 18:55:00,59.0,30.0,-100.00,WNW,286,5.0,11.0,32,-99.99,,,-99.99,,2013-05-14 22:55:00,
2013-05-14 19:00:00,57.0,34.0,-100.00,West,271,5.0,11.0,42,-99.99,,,-99.99,,2013-05-14 23:00:00,
2013-05-14 19:22:00,57.0,34.0,-100.00,West,271,5.0,11.0,42,-99.99,,,-99.99,,2013-05-14 23:22:00,
2013-05-14 19:32:00,57.0,34.0,-100.00,West,271,5.0,11.0,42,-99.99,,,-99.99,,2013-05-14 23:32:00,
2013-05-14 19:44:00,57.0,34.0,-100.00,West,271,5.0,11.0,42,-99.99,,,-99.99,,2013-05-14 23:44:00,
2013-05-14 19:53:00,57.0,34.0,-100.00,West,271,5.0,11.0,42,-99.99,,,-99.99,,2013-05-14 23:53:00,
2013-05-14 20:00:00,51.0,39.0,-100.00,South,190,2.0,10.0,63,-99.99,,,-99.99,,2013-05-15 00:00:00,
2013-05-14 20:32:00,51.0,39.0,-100.00,South,190,2.0,10.0,63,-99.99,,,-99.99,,2013-05-15 00:32:00,
2013-05-14 20:42:00,51.0,39.0,-100.00,South,190,2.0,10.0,63,-99.99,,,-99.99,,2013-05-15 00:42:00,
2013-05-14 20:52:00,51.0,39.0,-100.00,South,190,2.0,10.0,63,-99.99,,,-99.99,,2013-05-15 00:52:00,
2013-05-14 21:00:00,50.0,42.0,-100.00,West,261,3.0,6.0,74,-99.99,,,-99.99,,2013-05-15 01:00:00,
2013-05-14 21:32:00,50.0,42.0,-100.00,West,261,3.0,6.0,74,-99.99,,,-99.99,,2013-05-15 01:32:00,
2013-05-14 21:42:00,50.0,42.0,-100.00,West,261,3.0,6.0,74,-99.99,,,-99.99,,2013-05-15 01:42:00,
2013-05-14 21:52:00,50.0,42.0,-100.00,West,261,3.0,6.0,74,-99.99,,,-99.99,,2013-05-15 01:52:00,
2013-05-14 22:00:00,51.0,42.0,-100.00,SE,138,2.0,6.0,72,-99.99,,,-99.99,,2013-05-15 02:00:00,
2013-05-14 22:32:00,51.0,42.0,-100.00,SE,138,2.0,6.0,72,-99.99,,,-99.99,,2013-05-15 02:32:00,
2013-05-14 22:42:00,51.0,42.0,-100.00,SE,138,2.0,6.0,72,-99.99,,,-99.99,,2013-05-15 02:42:00,
2013-05-14 22:52:00,51.0,42.0,-100.00,SE,138,2.0,6.0,72,-99.99,,,-99.99,,2013-05-15 02:52:00,